createdAt,value
2023-11-09T00:00:27.354Z,100463.25
2023-11-09T00:02:54.105Z,100465.84
2023-11-09T00:05:20.856Z,100465.00
2023-11-09T00:07:47.768Z,100467.63
2023-11-09T00:10:14.575Z,100465.00
2023-11-09T00:12:41.256Z,100465.88
2023-11-09T00:15:08.060Z,100457.19
2023-11-09T00:17:34.784Z,100460.66
2023-11-09T00:20:01.575Z,100461.50
2023-11-09T00:22:28.359Z,100463.22
2023-11-09T00:24:55.024Z,100458.88
2023-11-09T00:27:22.041Z,100463.22
2023-11-09T00:29:48.899Z,100459.78
2023-11-09T00:32:15.712Z,100451.06
2023-11-09T00:34:42.470Z,100446.69
2023-11-09T00:37:09.271Z,100452.81
2023-11-09T00:39:36.152Z,100453.63
2023-11-09T00:42:02.865Z,100443.19
2023-11-09T00:44:29.528Z,100444.09
2023-11-09T00:46:56.194Z,100444.97
2023-11-09T00:49:22.829Z,100443.22
2023-11-09T00:51:49.509Z,100445.84
2023-11-09T00:54:16.152Z,100437.13
2023-11-09T00:56:42.884Z,100452.75
2023-11-09T00:59:09.509Z,100437.94
2023-11-09T01:01:36.134Z,100444.00
2023-11-09T01:04:02.900Z,100445.72
2023-11-09T01:06:29.813Z,100438.78
2023-11-09T01:08:56.502Z,100444.03
2023-11-09T01:11:24.146Z,100435.31
2023-11-09T01:13:50.966Z,100444.81
2023-11-09T01:16:17.660Z,100448.28
2023-11-09T01:18:46.639Z,100441.34
2023-11-09T01:21:13.443Z,100443.97
2023-11-09T01:23:40.098Z,100445.72
2023-11-09T01:26:06.970Z,100445.75
2023-11-09T01:28:33.922Z,100443.03
2023-11-09T01:31:00.682Z,100445.69
2023-11-09T01:33:27.529Z,100443.97
2023-11-09T01:35:54.179Z,100450.94
2023-11-09T01:38:20.937Z,100446.59
2023-11-09T01:40:54.619Z,100450.94
2023-11-09T01:43:22.102Z,100443.97
2023-11-09T01:45:49.749Z,100448.25
2023-11-09T01:48:16.668Z,100443.81
2023-11-09T01:50:43.616Z,100445.56
2023-11-09T01:53:10.341Z,100442.13
2023-11-09T01:55:37.705Z,100444.75
2023-11-09T01:58:04.780Z,100446.44
2023-11-09T02:00:31.668Z,100443.03
2023-11-09T02:03:00.240Z,100451.72
2023-11-09T02:05:27.348Z,100444.69
2023-11-09T02:07:54.493Z,100441.22
2023-11-09T02:10:21.657Z,100447.31
2023-11-09T02:12:48.622Z,100440.25
2023-11-09T02:15:15.407Z,100439.41
2023-11-09T02:17:42.225Z,100433.25
2023-11-09T02:20:10.834Z,100436.69
2023-11-09T02:22:38.321Z,100436.59
2023-11-09T02:25:05.573Z,100433.22
2023-11-09T02:27:32.227Z,100440.13
2023-11-09T02:29:58.958Z,100438.31
2023-11-09T02:32:25.631Z,100434.88
2023-11-09T02:34:52.340Z,100429.75
2023-11-09T02:37:19.003Z,100424.53
2023-11-09T02:39:45.651Z,100428.06
2023-11-09T02:42:12.446Z,100429.00
2023-11-09T02:44:39.474Z,100426.34
2023-11-09T02:47:06.093Z,100430.69
2023-11-09T02:49:32.786Z,100435.88
2023-11-09T02:51:59.586Z,100435.94
2023-11-09T02:54:26.410Z,100423.72
2023-11-09T02:56:53.048Z,100427.16
2023-11-09T02:59:19.826Z,100423.63
2023-11-09T03:01:46.618Z,100427.94
2023-11-09T03:04:13.292Z,100424.47
2023-11-09T03:06:39.953Z,100430.44
2023-11-09T03:09:06.690Z,100427.78
2023-11-09T03:11:33.352Z,100424.38
2023-11-09T03:14:00.000Z,100430.47
2023-11-09T03:16:27.112Z,100433.94
2023-11-09T03:18:53.818Z,100424.41
2023-11-09T03:21:20.511Z,100426.91
2023-11-09T03:23:47.141Z,100427.69
2023-11-09T03:26:14.868Z,100426.91
2023-11-09T03:28:41.481Z,100430.47
2023-11-09T03:31:08.402Z,100427.13
2023-11-09T03:33:35.194Z,100427.13
2023-11-09T03:36:01.838Z,100420.09
2023-11-09T03:38:28.477Z,100420.25
2023-11-09T03:40:55.336Z,100422.03
2023-11-09T03:43:22.248Z,100419.38
2023-11-09T03:45:49.115Z,100415.03
2023-11-09T03:48:15.818Z,100409.91
2023-11-09T03:50:45.800Z,100409.00
2023-11-09T03:53:12.450Z,100414.19
2023-11-09T03:55:39.097Z,100411.41
2023-11-09T03:58:05.962Z,100410.63
2023-11-09T04:00:32.677Z,100413.19
2023-11-09T04:02:59.376Z,100411.50
2023-11-09T04:05:26.255Z,100406.31
2023-11-09T04:07:52.971Z,100408.94
2023-11-09T04:10:19.685Z,100411.50
2023-11-09T04:12:46.405Z,100406.31
2023-11-09T04:15:13.358Z,100407.13
2023-11-09T04:17:42.460Z,100406.25
2023-11-09T04:20:09.609Z,100409.72
2023-11-09T04:22:36.687Z,100411.38
2023-11-09T04:25:03.650Z,100407.03
2023-11-09T04:27:30.519Z,100407.13
2023-11-09T04:29:57.202Z,100400.94
2023-11-09T04:32:23.968Z,100391.41
2023-11-09T04:34:50.703Z,100397.47
2023-11-09T04:37:17.362Z,100395.78
2023-11-09T04:39:44.599Z,100398.22
2023-11-09T04:42:11.439Z,100399.22
2023-11-09T04:44:38.291Z,100400.88
2023-11-09T04:47:05.143Z,100409.44
2023-11-09T04:49:31.864Z,100397.16
2023-11-09T04:51:58.667Z,100399.22
2023-11-09T04:54:25.284Z,100405.94
2023-11-09T04:56:53.099Z,100405.91
2023-11-09T04:59:23.533Z,100405.78
2023-11-09T05:01:51.465Z,100409.47
2023-11-09T05:04:18.155Z,100406.91
2023-11-09T05:06:46.692Z,100408.66
2023-11-09T05:09:13.342Z,100401.72
2023-11-09T05:11:40.297Z,100402.56
2023-11-09T05:14:07.138Z,100406.88
2023-11-09T05:16:33.802Z,100411.25
2023-11-09T05:19:00.503Z,100410.25
2023-11-09T05:21:27.265Z,100405.94
2023-11-09T05:23:53.926Z,100403.34
2023-11-09T05:26:20.837Z,100397.31
2023-11-09T05:28:47.613Z,100401.59
2023-11-09T05:31:14.691Z,100399.97
2023-11-09T05:33:41.809Z,100396.47
2023-11-09T05:36:08.814Z,100393.91
2023-11-09T05:38:38.718Z,100393.88
2023-11-09T05:41:05.455Z,100387.03
2023-11-09T05:43:32.163Z,100389.63
2023-11-09T05:45:58.820Z,100386.06
2023-11-09T05:48:25.743Z,100382.53
2023-11-09T05:50:52.631Z,100379.16
2023-11-09T05:53:19.263Z,100385.16
2023-11-09T05:55:45.927Z,100384.31
2023-11-09T05:58:12.738Z,100386.06
2023-11-09T06:00:40.410Z,100392.00
2023-11-09T06:03:07.107Z,100397.28
2023-11-09T06:05:33.924Z,100392.13
2023-11-09T06:08:00.667Z,100400.00
2023-11-09T06:10:27.502Z,100392.94
2023-11-09T06:12:54.170Z,100394.69
2023-11-09T06:15:20.877Z,100392.13
2023-11-09T06:17:47.666Z,100386.91
2023-11-09T06:20:15.014Z,100394.78
2023-11-09T06:22:41.950Z,100404.34
2023-11-09T06:25:09.666Z,100403.44
2023-11-09T06:27:36.556Z,100406.91
2023-11-09T06:30:04.207Z,100401.84
2023-11-09T06:32:31.620Z,100410.38
2023-11-09T06:34:58.254Z,100411.38
2023-11-09T06:37:24.927Z,100414.81
2023-11-09T06:39:51.550Z,100407.94
2023-11-09T06:42:18.185Z,100417.47
2023-11-09T06:44:45.757Z,100419.09
2023-11-09T06:47:12.528Z,100421.88
2023-11-09T06:49:39.418Z,100422.66
2023-11-09T06:52:06.840Z,100428.63
2023-11-09T06:54:33.646Z,100422.50
2023-11-09T06:57:00.474Z,100420.97
2023-11-09T06:59:27.136Z,100416.63
2023-11-09T07:01:53.874Z,100423.41
2023-11-09T07:04:20.713Z,100425.25
2023-11-09T07:06:47.618Z,100418.22
2023-11-09T07:09:14.524Z,100419.97
2023-11-09T07:11:41.394Z,100420.88
2023-11-09T07:14:08.113Z,100417.31
2023-11-09T07:16:34.808Z,100412.22
2023-11-09T07:19:01.649Z,100413.19
2023-11-09T07:21:28.717Z,100407.13
2023-11-09T07:23:55.368Z,100409.78
2023-11-09T07:26:21.992Z,100410.78
2023-11-09T07:28:48.589Z,100414.31
2023-11-09T07:31:16.866Z,100420.50
2023-11-09T07:33:43.756Z,100419.56
2023-11-09T07:36:10.419Z,100417.78
2023-11-09T07:38:37.399Z,100414.34
2023-11-09T07:41:04.479Z,100421.28
2023-11-09T07:43:31.340Z,100414.31
2023-11-09T07:46:00.405Z,100413.53
2023-11-09T07:48:27.152Z,100413.59
2023-11-09T07:50:53.897Z,100416.13
2023-11-09T07:53:21.071Z,100415.41
2023-11-09T07:55:50.759Z,100411.91
2023-11-09T07:58:18.169Z,100415.41
2023-11-09T08:00:45.149Z,100418.91
2023-11-09T08:03:12.014Z,100416.31
2023-11-09T08:05:39.750Z,100411.13
2023-11-09T08:08:06.408Z,100415.47
2023-11-09T08:10:33.095Z,100405.00
2023-11-09T08:12:59.837Z,100404.13
2023-11-09T08:15:26.622Z,100397.97
2023-11-09T08:17:53.406Z,100400.63
2023-11-09T08:20:20.117Z,100396.25
2023-11-09T08:22:47.681Z,100392.72
2023-11-09T08:25:16.368Z,100391.66
2023-11-09T08:27:43.406Z,100392.44
2023-11-09T08:30:11.702Z,100392.44
2023-11-09T08:32:39.591Z,100384.50
2023-11-09T08:35:07.171Z,100381.81
2023-11-09T08:37:33.792Z,100382.44
2023-11-09T08:40:00.526Z,100386.84
2023-11-09T08:42:27.161Z,100381.38
2023-11-09T08:44:53.802Z,100380.38
2023-11-09T08:47:20.474Z,100378.50
2023-11-09T08:49:47.168Z,100384.63
2023-11-09T08:52:13.883Z,100386.19
2023-11-09T08:54:40.591Z,100390.44
2023-11-09T08:57:07.221Z,100385.72
2023-11-09T08:59:35.437Z,100383.13
2023-11-09T09:02:03.697Z,100385.09
2023-11-09T09:04:30.335Z,100376.31
2023-11-09T09:06:57.048Z,100383.59
2023-11-09T09:09:25.041Z,100387.75
2023-11-09T09:11:53.502Z,100379.56
2023-11-09T09:14:20.138Z,100378.66
2023-11-09T09:16:46.787Z,100373.38
2023-11-09T09:19:13.504Z,100371.09
2023-11-09T09:21:40.476Z,100368.06
2023-11-09T09:24:07.586Z,100362.09
2023-11-09T09:26:34.484Z,100359.22
2023-11-09T09:29:01.286Z,100353.66
2023-11-09T09:31:29.009Z,100354.25
2023-11-09T09:34:03.936Z,100351.09
2023-11-09T09:36:30.829Z,100354.19
2023-11-09T09:38:57.485Z,100347.44
2023-11-09T09:41:29.416Z,100357.84
2023-11-09T09:43:56.783Z,100353.22
2023-11-09T09:46:23.888Z,100352.06
2023-11-09T09:48:52.808Z,100355.69
2023-11-09T09:51:20.157Z,100354.50
2023-11-09T09:53:48.626Z,100345.16
2023-11-09T09:56:17.393Z,100348.00
2023-11-09T09:58:44.868Z,100348.97
2023-11-09T10:01:12.202Z,100337.25
2023-11-09T10:03:39.498Z,100341.03
2023-11-09T10:06:06.323Z,100342.84
2023-11-09T10:08:33.769Z,100334.53
2023-11-09T10:11:00.946Z,100333.47
2023-11-09T10:13:29.224Z,100328.53
2023-11-09T10:15:57.564Z,100331.13
2023-11-09T10:18:32.055Z,100334.59
2023-11-09T10:21:00.801Z,100329.44
2023-11-09T10:23:27.720Z,100328.03
2023-11-09T10:25:56.763Z,100324.66
2023-11-09T10:28:23.485Z,100327.75
2023-11-09T10:30:50.185Z,100322.44
2023-11-09T10:33:18.588Z,100324.66
2023-11-09T10:35:47.157Z,100320.38
2023-11-09T10:38:16.485Z,100325.47
2023-11-09T10:41:13.657Z,100314.28
2023-11-09T10:43:31.574Z,100312.63
2023-11-09T10:45:58.515Z,100308.19
2023-11-09T10:48:25.730Z,100315.53
2023-11-09T10:50:52.444Z,100304.63
2023-11-09T10:53:22.887Z,100306.50
2023-11-09T10:55:52.164Z,100298.78
2023-11-09T10:58:19.101Z,100298.84
2023-11-09T11:00:45.751Z,100292.75
2023-11-09T11:03:31.886Z,100285.78
2023-11-09T11:06:29.287Z,100286.16
2023-11-09T11:09:03.088Z,100281.34
2023-11-09T11:11:31.601Z,100260.72
2023-11-09T11:14:02.336Z,100259.88
2023-11-09T11:16:38.358Z,100266.00
2023-11-09T11:19:13.952Z,100268.41
2023-11-09T11:22:14.396Z,100258.91
2023-11-09T11:24:59.222Z,100254.06
2023-11-09T11:27:50.566Z,100257.72
2023-11-09T11:30:31.811Z,100240.81
2023-11-09T11:33:02.674Z,100248.19
2023-11-09T11:35:41.896Z,100239.03
2023-11-09T11:38:14.905Z,100246.31
2023-11-09T11:40:43.093Z,100246.41
2023-11-09T11:43:10.536Z,100236.19
2023-11-09T11:45:37.541Z,100265.50
2023-11-09T11:48:04.852Z,100242.97
2023-11-09T11:50:33.683Z,100233.38
2023-11-09T11:53:04.434Z,100234.25
2023-11-09T11:55:34.610Z,100230.38
2023-11-09T11:58:03.044Z,100242.25
2023-11-09T12:00:40.609Z,100230.97
2023-11-09T12:03:14.076Z,100228.94
2023-11-09T12:05:44.610Z,100226.19
2023-11-09T12:08:11.526Z,100215.50
2023-11-09T12:10:38.266Z,100213.09
2023-11-09T12:13:05.154Z,100209.66
2023-11-09T12:15:31.806Z,100206.00
2023-11-09T12:17:58.639Z,100206.63
2023-11-09T12:20:25.312Z,100210.81
2023-11-09T12:22:52.362Z,100197.88
2023-11-09T12:25:19.296Z,100192.75
2023-11-09T12:27:46.858Z,100194.38
2023-11-09T12:30:15.162Z,100184.88
2023-11-09T12:32:41.869Z,100191.16
2023-11-09T12:35:17.868Z,100189.44
2023-11-09T12:37:44.794Z,100184.72
2023-11-09T12:40:11.844Z,100186.97
2023-11-09T12:42:39.566Z,100172.88
2023-11-09T12:45:26.225Z,100167.59
2023-11-09T12:47:58.169Z,100163.56
2023-11-09T12:50:24.879Z,100160.31
2023-11-09T12:52:51.672Z,100151.91
2023-11-09T12:55:22.105Z,100158.81
2023-11-09T12:57:50.386Z,100159.00
2023-11-09T13:00:17.352Z,100159.97
2023-11-09T13:02:44.446Z,100151.44
2023-11-09T13:05:11.276Z,100145.31
2023-11-09T13:07:38.014Z,100144.84
2023-11-09T13:10:05.433Z,100127.50
2023-11-09T13:12:35.005Z,100138.75
2023-11-09T13:15:01.917Z,100139.00
2023-11-09T13:17:28.632Z,100139.34
2023-11-09T13:19:55.315Z,100147.31
2023-11-09T13:22:21.984Z,100137.56
2023-11-09T13:24:49.091Z,100132.56
2023-11-09T13:27:15.770Z,100136.53
2023-11-09T13:29:44.052Z,100135.22
2023-11-09T13:32:11.343Z,100131.03
2023-11-09T13:34:38.010Z,100122.81
2023-11-09T13:37:04.679Z,100126.38
2023-11-09T13:39:31.677Z,100122.66
2023-11-09T13:41:58.256Z,100122.75
2023-11-09T13:44:24.889Z,100118.78
2023-11-09T13:46:52.215Z,100120.94
2023-11-09T13:49:18.868Z,100116.41
2023-11-09T13:51:46.639Z,100129.03
2023-11-09T13:54:13.279Z,100116.78
2023-11-09T13:56:39.930Z,100110.34
2023-11-09T13:59:06.575Z,100114.00
2023-11-09T14:01:33.216Z,100110.94
2023-11-09T14:03:59.885Z,100116.91
2023-11-09T14:06:26.841Z,100105.59
2023-11-09T14:08:53.439Z,100101.13
2023-11-09T14:11:20.089Z,100099.00
2023-11-09T14:13:46.789Z,100102.22
2023-11-09T14:16:17.303Z,100102.72
2023-11-09T14:18:43.961Z,100104.06
2023-11-09T14:21:10.608Z,100109.34
2023-11-09T14:23:39.661Z,100103.41
2023-11-09T14:26:07.348Z,100097.25
2023-11-09T14:28:34.190Z,100083.75
2023-11-09T14:31:01.010Z,100086.81
2023-11-09T14:33:27.722Z,100092.50
2023-11-09T14:35:54.810Z,100084.38
2023-11-09T14:38:24.361Z,100090.47
2023-11-09T14:40:51.666Z,100082.59
2023-11-09T14:43:18.791Z,100093.47
2023-11-09T14:45:46.819Z,100090.72
2023-11-09T14:48:14.397Z,100081.47
2023-11-09T14:50:43.164Z,100075.78
2023-11-09T14:53:12.227Z,100075.81
2023-11-09T14:55:42.287Z,100071.84
2023-11-09T14:58:09.095Z,100066.78
2023-11-09T15:00:36.093Z,100061.25
2023-11-09T15:03:05.750Z,100058.72
2023-11-09T15:05:32.516Z,100054.13
2023-11-09T15:07:59.221Z,100056.38
2023-11-09T15:10:26.012Z,100052.19
2023-11-09T15:12:54.434Z,100058.72
2023-11-09T15:15:21.709Z,100060.03
2023-11-09T15:17:48.839Z,100056.94
2023-11-09T15:20:15.504Z,100055.13
2023-11-09T15:22:42.169Z,100053.56
2023-11-09T15:25:08.918Z,100052.09
2023-11-09T15:27:35.622Z,100044.31
2023-11-09T15:30:02.497Z,100051.38
2023-11-09T15:32:30.354Z,100058.06
2023-11-09T15:34:57.152Z,100055.91
2023-11-09T15:37:23.909Z,100056.34
2023-11-09T15:40:12.761Z,100063.03
2023-11-09T15:42:37.753Z,100050.66
2023-11-09T15:45:05.824Z,100050.88
2023-11-09T15:47:32.469Z,100057.28
2023-11-09T15:49:59.361Z,100052.91
2023-11-09T15:52:26.043Z,100049.78
2023-11-09T15:54:52.650Z,100061.78
2023-11-09T15:57:19.364Z,100053.66
2023-11-09T15:59:46.027Z,100048.97
2023-11-09T16:02:12.772Z,100051.97
2023-11-09T16:04:39.448Z,100049.13
2023-11-09T16:07:07.563Z,100052.34
2023-11-09T16:09:34.794Z,100045.75
2023-11-09T16:12:02.133Z,100061.31
2023-11-09T16:14:28.818Z,100054.59
2023-11-09T16:16:55.509Z,100050.94
2023-11-09T16:19:22.167Z,100053.84
2023-11-09T16:21:49.219Z,100055.44
2023-11-09T16:24:16.290Z,100057.16
2023-11-09T16:26:42.928Z,100053.28
2023-11-09T16:29:10.029Z,100047.22
2023-11-09T16:31:36.743Z,100045.38
2023-11-09T16:34:03.522Z,100046.22
2023-11-09T16:36:30.161Z,100039.78
2023-11-09T16:38:57.219Z,100042.09
2023-11-09T16:41:24.168Z,100052.03
2023-11-09T16:43:51.313Z,100045.22
2023-11-09T16:46:17.984Z,100045.75
2023-11-09T16:48:45.080Z,100049.88
2023-11-09T16:51:11.980Z,100050.69
2023-11-09T16:53:38.935Z,100048.53
2023-11-09T16:56:06.644Z,100049.88
2023-11-09T16:58:33.288Z,100047.00
2023-11-09T17:00:59.944Z,100053.50
2023-11-09T17:03:26.654Z,100048.81
2023-11-09T17:05:53.551Z,100044.69
2023-11-09T17:08:20.340Z,100044.34
2023-11-09T17:10:46.985Z,100053.09
2023-11-09T17:13:13.721Z,100053.47
2023-11-09T17:15:40.441Z,100050.28
2023-11-09T17:18:07.213Z,100051.13
2023-11-09T17:20:33.914Z,100044.94
2023-11-09T17:23:00.671Z,100037.53
2023-11-09T17:25:27.456Z,100031.75
2023-11-09T17:27:54.079Z,100034.69
2023-11-09T17:30:20.711Z,100033.31
2023-11-09T17:32:47.496Z,100032.03
2023-11-09T17:35:14.212Z,100029.81
2023-11-09T17:37:40.924Z,100023.75
2023-11-09T17:40:08.218Z,100030.19
2023-11-09T17:42:34.986Z,100028.78
2023-11-09T17:45:01.804Z,100029.03
2023-11-09T17:47:28.615Z,100019.44
2023-11-09T17:49:55.296Z,100021.09
2023-11-09T17:52:22.012Z,100020.31
2023-11-09T17:54:48.685Z,100024.00
2023-11-09T17:57:15.344Z,100023.19
2023-11-09T17:59:42.053Z,100026.66
2023-11-09T18:02:08.987Z,100021.50
2023-11-09T18:04:36.405Z,100018.38
2023-11-09T18:07:04.503Z,100012.03
2023-11-09T18:09:31.698Z,100015.56
2023-11-09T18:11:58.301Z,100013.41
2023-11-09T18:14:24.944Z,100008.56
2023-11-09T18:16:51.791Z,100012.00
2023-11-09T18:19:18.954Z,100011.78
2023-11-09T18:21:45.858Z,100006.66
2023-11-09T18:24:12.979Z,100000.63
2023-11-09T18:26:39.904Z,100002.25
2023-11-09T18:29:06.749Z,100004.13
2023-11-09T18:31:33.552Z,99998.59
2023-11-09T18:34:00.244Z,100002.47
2023-11-09T18:36:26.916Z,100000.72
2023-11-09T18:38:53.571Z,100007.09
2023-11-09T18:41:20.323Z,99998.19
2023-11-09T18:43:46.968Z,100002.06
2023-11-09T18:46:14.861Z,99993.72
2023-11-09T18:48:41.668Z,99995.56
2023-11-09T18:51:09.098Z,99993.16
2023-11-09T18:53:35.997Z,99990.44
2023-11-09T18:56:02.675Z,99983.81
2023-11-09T18:58:29.308Z,99979.31
2023-11-09T19:00:56.128Z,99980.41
2023-11-09T19:05:52.499Z,99988.22
2023-11-09T19:08:19.213Z,99971.16
2023-11-09T19:10:45.890Z,99983.25
2023-11-09T19:13:12.559Z,99970.38
2023-11-09T19:15:39.276Z,99968.16
2023-11-09T19:18:06.071Z,99967.38
2023-11-09T19:23:02.327Z,99965.38
2023-11-09T19:25:29.278Z,99965.84
2023-11-09T19:27:56.250Z,99964.81
2023-11-09T19:30:22.904Z,99962.34
2023-11-09T19:32:50.176Z,99960.63
2023-11-09T19:35:16.882Z,99956.03
2023-11-09T19:37:43.667Z,99955.69
2023-11-09T19:40:10.669Z,99945.59
2023-11-09T19:42:37.423Z,99944.13
2023-11-09T19:45:04.425Z,99952.00
2023-11-09T19:47:31.404Z,99950.69
2023-11-09T19:49:58.151Z,99944.41
2023-11-09T19:52:24.874Z,99948.56
2023-11-09T19:54:51.541Z,99959.38
2023-11-09T19:57:18.205Z,99949.34
2023-11-09T19:59:44.827Z,99953.13
2023-11-09T20:02:11.619Z,99950.00
2023-11-09T20:04:38.306Z,99948.34
2023-11-09T20:07:05.167Z,99948.44
2023-11-09T20:09:31.961Z,99948.19
2023-11-09T20:11:58.740Z,99956.38
2023-11-09T20:14:27.532Z,99944.06
2023-11-09T20:16:54.156Z,99944.81
2023-11-09T20:19:21.011Z,99940.03
2023-11-09T20:21:47.771Z,99940.19
2023-11-09T20:24:14.483Z,99935.28
2023-11-09T20:26:41.145Z,99936.28
2023-11-09T20:29:07.993Z,99935.44
2023-11-09T20:31:34.615Z,99936.06
2023-11-09T20:34:01.465Z,99929.97
2023-11-09T20:36:28.295Z,99935.03
2023-11-09T20:38:55.107Z,99926.16
2023-11-09T20:41:22.024Z,99925.50
2023-11-09T20:43:48.659Z,99928.25
2023-11-09T20:46:15.803Z,99914.88
2023-11-09T20:48:42.616Z,99917.38
2023-11-09T20:51:09.388Z,99920.81
2023-11-09T20:53:36.658Z,99914.31
2023-11-09T20:56:03.437Z,99910.66
2023-11-09T20:58:30.079Z,99901.97
2023-11-09T21:00:56.732Z,99908.94
2023-11-09T21:03:23.455Z,99901.31
2023-11-09T21:05:50.247Z,99904.56
2023-11-09T21:08:16.953Z,99906.22
2023-11-09T21:10:43.857Z,99901.97
2023-11-09T21:13:10.548Z,99900.78
2023-11-09T21:15:37.232Z,99896.84
2023-11-09T21:18:06.243Z,99901.84
2023-11-09T21:20:32.980Z,99903.84
2023-11-09T21:22:59.711Z,99906.72
2023-11-09T21:25:26.442Z,99899.81
2023-11-09T21:27:53.182Z,99886.03
2023-11-09T21:30:20.335Z,99889.19
2023-11-09T21:32:49.903Z,99885.38
2023-11-09T21:35:17.161Z,99879.03
2023-11-09T21:37:44.483Z,99882.66
2023-11-09T21:40:11.866Z,99879.47
2023-11-09T21:42:38.607Z,99881.06
2023-11-09T21:45:05.827Z,99871.09
2023-11-09T21:47:32.525Z,99869.94
2023-11-09T21:50:00.456Z,99874.88
2023-11-09T21:52:27.114Z,99863.25
2023-11-09T21:54:53.845Z,99869.16
2023-11-09T21:57:20.507Z,99870.72
2023-11-09T21:59:47.419Z,99869.06
2023-11-09T22:02:14.167Z,99868.81
2023-11-09T22:04:40.922Z,99870.50
2023-11-09T22:07:07.666Z,99863.00
2023-11-09T22:09:34.935Z,99880.63
2023-11-09T22:12:03.520Z,99867.69
2023-11-09T22:14:30.732Z,99874.53
2023-11-09T22:16:57.437Z,99873.16
2023-11-09T22:19:24.144Z,99869.59
2023-11-09T22:21:50.868Z,99862.69
2023-11-09T22:24:17.706Z,99860.50
2023-11-09T22:26:48.086Z,99866.03
2023-11-09T22:29:15.177Z,99869.00
2023-11-09T22:31:42.188Z,99867.44
2023-11-09T22:34:09.041Z,99870.28
2023-11-09T22:36:35.845Z,99866.78
2023-11-09T22:39:02.660Z,99865.09
2023-11-09T22:41:29.383Z,99866.94
2023-11-09T22:43:56.039Z,99860.69
2023-11-09T22:46:22.717Z,99859.00
2023-11-09T22:48:52.592Z,99862.44
2023-11-09T22:51:22.475Z,99861.59
2023-11-09T22:53:49.335Z,99862.22
2023-11-09T22:56:15.986Z,99856.94
2023-11-09T22:58:42.650Z,99863.53
2023-11-09T23:01:09.480Z,99862.28
2023-11-09T23:03:36.286Z,99851.69
2023-11-09T23:06:03.103Z,99849.78
2023-11-09T23:08:29.921Z,99850.53
2023-11-09T23:10:56.599Z,99855.00
2023-11-09T23:13:23.438Z,99847.19
2023-11-09T23:15:50.064Z,99840.63
2023-11-09T23:18:17.427Z,99843.88
2023-11-09T23:20:45.063Z,99832.34
2023-11-09T23:23:12.037Z,99831.53
2023-11-09T23:25:38.795Z,99826.09
2023-11-09T23:28:05.665Z,99830.97
2023-11-09T23:30:32.359Z,99838.09
2023-11-09T23:32:59.082Z,99831.97
2023-11-09T23:35:25.789Z,99836.34
2023-11-09T23:37:52.538Z,99832.25
2023-11-09T23:40:19.164Z,99831.88
2023-11-09T23:42:45.843Z,99831.38
2023-11-09T23:45:13.380Z,99826.75
2023-11-09T23:47:40.704Z,99823.13
2023-11-09T23:50:10.368Z,99811.03
2023-11-09T23:52:37.110Z,99810.22
2023-11-09T23:55:04.756Z,99805.75
2023-11-09T23:57:32.400Z,99807.53
2023-11-09T23:59:59.280Z,99802.28
